Time;durP1;ratioP1;P1;durP2;ratioP2;P2;SDS_P1;SDS_P2;PMS_P1;PMS_P2;Temp;Humidity;BMP_temperature;BMP_pressure;BME280_temperature;BME280_humidity;BME280_pressure;Samples;Min_cycle;Max_cycle;Signal;HPM_P1;HPM_P2
2023/07/12 00:00:42;;;;;;;;;;;;;;;23.83;52.48;100324.03;4986424;28;4226;-66
2023/07/12 00:03:08;;;;;;;;;;;;;;;23.83;52.39;100329.09;4989107;28;4077;-66
2023/07/12 00:05:35;;;;;;;;;;;;;;;23.82;52.51;100322.56;4985421;28;4037;-66
2023/07/12 00:08:02;;;;;;;;;;;;;;;23.83;52.72;100321.13;4988654;28;4176;-66
2023/07/12 00:10:29;;;;;;;;;;;;;;;23.82;52.47;100325.47;4988780;28;4071;-66
2023/07/12 00:12:56;;;;;;;;;;;;;;;23.82;52.44;100331.25;5004582;28;3969;-66
2023/07/12 00:15:23;;;;;;;;;;;;;;;23.80;52.20;100333.31;4984890;28;4172;-66
2023/07/12 00:17:49;;;;;;;;;;;;;;;23.81;52.16;100321.09;4990024;28;3947;-66
2023/07/12 00:20:17;;;;;;;;;;;;;;;23.82;52.09;100311.00;4988720;28;4345;-67
2023/07/12 00:22:44;;;;;;;;;;;;;;;23.80;52.31;100310.97;4992869;28;4329;-66
2023/07/12 00:25:11;;;;;;;;;;;;;;;23.81;52.30;100311.69;4990324;28;4041;-66
2023/07/12 00:27:37;;;;;;;;;;;;;;;23.79;51.92;100309.47;4991446;28;4981;-66
2023/07/12 00:30:10;;;;;;;;;;;;;;;23.80;52.15;100310.19;4987719;28;4146;-66
2023/07/12 00:32:37;;;;;;;;;;;;;;;23.79;51.95;100309.47;4987070;28;4167;-66
2023/07/12 00:35:03;;;;;;;;;;;;;;;23.80;52.18;100304.41;4989474;28;4137;-66
2023/07/12 00:37:30;;;;;;;;;;;;;;;23.78;52.04;100290.66;4985521;28;4168;-66
2023/07/12 00:39:56;;;;;;;;;;;;;;;23.79;51.93;100276.94;4990452;28;4037;-66
2023/07/12 00:42:25;;;;;;;;;;;;;;;23.77;51.79;100271.84;5001909;28;4083;-65
2023/07/12 00:44:53;;;;;;;;;;;;;;;23.79;51.70;100262.50;4988838;28;3988;-65
2023/07/12 00:47:20;;;;;;;;;;;;;;;23.80;51.91;100253.13;4985588;28;4214;-66
2023/07/12 00:49:46;;;;;;;;;;;;;;;23.79;51.61;100237.19;4998309;28;4194;-65
2023/07/12 00:52:13;;;;;;;;;;;;;;;23.79;51.83;100239.34;4986181;28;4275;-66
2023/07/12 00:54:58;;;;;;;;;;;;;;;23.79;51.78;100237.19;4986618;28;4000;-65
2023/07/12 00:57:25;;;;;;;;;;;;;;;23.78;51.97;100226.34;4999706;28;4053;-65
2023/07/12 00:59:52;;;;;;;;;;;;;;;23.76;51.81;100221.25;4986280;28;4272;-64
2023/07/12 01:02:23;;;;;;;;;;;;;;;23.78;51.66;100217.66;4989735;28;4501;-65
2023/07/12 01:04:49;;;;;;;;;;;;;;;23.76;51.63;100206.78;4988732;28;4115;-65
2023/07/12 01:07:16;;;;;;;;;;;;;;;23.76;51.57;100201.00;4988966;28;4463;-66
2023/07/12 01:09:42;;;;;;;;;;;;;;;23.78;51.48;100200.31;5003763;28;4181;-65
2023/07/12 01:12:10;;;;;;;;;;;;;;;23.77;51.52;100196.69;5003526;28;4296;-66
2023/07/12 01:14:37;;;;;;;;;;;;;;;23.78;51.63;100188.75;4988147;28;4142;-65
2023/07/12 01:17:04;;;;;;;;;;;;;;;23.78;51.22;100186.59;4988916;28;6408;-65
2023/07/12 01:19:31;;;;;;;;;;;;;;;23.79;51.37;100182.28;4999857;28;4111;-65
2023/07/12 01:21:59;;;;;;;;;;;;;;;23.73;51.56;100179.25;4990498;28;4214;-65
2023/07/12 01:24:26;;;;;;;;;;;;;;;23.74;51.27;100174.94;4986190;28;4158;-65
2023/07/12 01:26:57;;;;;;;;;;;;;;;23.75;51.62;100170.63;4985679;28;4248;-65
2023/07/12 01:29:28;;;;;;;;;;;;;;;23.71;51.81;100167.63;4982992;28;4396;-65
2023/07/12 01:31:54;;;;;;;;;;;;;;;23.74;51.53;100157.59;4983688;28;4560;-65
2023/07/12 01:34:21;;;;;;;;;;;;;;;23.69;51.72;100150.25;4986705;28;4051;-66
2023/07/12 01:36:48;;;;;;;;;;;;;;;23.72;51.71;100143.06;4991480;28;4145;-65
2023/07/12 01:39:14;;;;;;;;;;;;;;;23.72;51.71;100148.84;4984878;28;4222;-65
2023/07/12 01:41:40;;;;;;;;;;;;;;;23.74;51.51;100146.03;4987239;28;4184;-65
2023/07/12 01:44:07;;;;;;;;;;;;;;;23.73;51.76;100133.00;4987303;28;4054;-65
2023/07/12 01:46:33;;;;;;;;;;;;;;;23.74;51.59;100134.47;5001045;28;4169;-65
2023/07/12 01:49:00;;;;;;;;;;;;;;;23.74;51.44;100128.69;4987324;28;4019;-65
2023/07/12 01:51:26;;;;;;;;;;;;;;;23.75;51.61;100130.16;4984049;28;4179;-65
2023/07/12 01:53:53;;;;;;;;;;;;;;;23.74;51.48;100133.72;5001007;28;4103;-65
2023/07/12 01:56:21;;;;;;;;;;;;;;;23.75;51.52;100121.47;5001081;28;4143;-66
2023/07/12 01:58:47;;;;;;;;;;;;;;;23.76;51.58;100114.28;4972018;28;4415;-65
2023/07/12 02:01:14;;;;;;;;;;;;;;;23.75;51.51;100104.13;5002507;28;4177;-66
2023/07/12 02:03:40;;;;;;;;;;;;;;;23.73;51.79;100092.53;4986706;28;4167;-65
2023/07/12 02:06:07;;;;;;;;;;;;;;;23.74;51.53;100075.91;4989252;28;4022;-65
2023/07/12 02:08:33;;;;;;;;;;;;;;;23.71;51.83;100075.13;4989072;28;4770;-65
2023/07/12 02:11:00;;;;;;;;;;;;;;;23.73;51.62;100075.19;4983541;28;4160;-65
2023/07/12 02:13:26;;;;;;;;;;;;;;;23.74;51.86;100065.09;4995159;28;4188;-65
2023/07/12 02:15:53;;;;;;;;;;;;;;;23.74;51.64;100053.53;4984012;28;4021;-65
2023/07/12 02:18:19;;;;;;;;;;;;;;;23.73;51.76;100057.84;4984579;28;4207;-65
2023/07/12 02:20:46;;;;;;;;;;;;;;;23.73;51.94;100049.16;4983188;28;4229;-65
2023/07/12 02:23:12;;;;;;;;;;;;;;;23.72;51.82;100056.34;4986188;28;4140;-66
2023/07/12 02:25:39;;;;;;;;;;;;;;;23.73;51.72;100063.63;4986417;28;4166;-65
2023/07/12 02:28:05;;;;;;;;;;;;;;;23.69;51.78;100054.84;4987698;28;4047;-65
2023/07/12 02:30:32;;;;;;;;;;;;;;;23.70;51.79;100056.31;4985098;28;4017;-65
2023/07/12 02:32:58;;;;;;;;;;;;;;;23.73;51.83;100057.09;4998665;28;4347;-65
2023/07/12 02:35:29;;;;;;;;;;;;;;;23.72;51.78;100044.78;4983041;28;4061;-65
2023/07/12 02:37:56;;;;;;;;;;;;;;;23.74;51.61;100044.09;4985383;28;3956;-65
2023/07/12 02:40:23;;;;;;;;;;;;;;;23.73;51.84;100037.59;4988940;28;4517;-66
2023/07/12 02:42:49;;;;;;;;;;;;;;;23.73;51.91;100034.72;4988156;28;4039;-65
2023/07/12 02:45:15;;;;;;;;;;;;;;;23.72;51.76;100026.72;4985113;28;4130;-65
2023/07/12 02:47:42;;;;;;;;;;;;;;;23.69;51.97;100028.84;4988014;28;4113;-65
2023/07/12 02:50:08;;;;;;;;;;;;;;;23.63;52.14;100026.56;4983343;28;4351;-65
2023/07/12 02:52:35;;;;;;;;;;;;;;;23.67;52.16;100034.59;4988326;28;4127;-65
2023/07/12 02:55:01;;;;;;;;;;;;;;;23.66;52.14;100038.88;4984215;28;4249;-65
2023/07/12 02:57:28;;;;;;;;;;;;;;;23.69;52.05;100083.75;4983494;28;4031;-66
2023/07/12 02:59:54;;;;;;;;;;;;;;;23.71;52.13;100103.28;4985133;28;4401;-65
2023/07/12 03:02:21;;;;;;;;;;;;;;;23.69;52.06;100083.75;4984131;28;4169;-65
2023/07/12 03:04:47;;;;;;;;;;;;;;;23.69;52.10;100077.97;4985277;28;4155;-65
2023/07/12 03:07:14;;;;;;;;;;;;;;;23.68;52.06;100078.66;4981281;28;4151;-66
2023/07/12 03:09:40;;;;;;;;;;;;;;;23.67;52.33;100077.22;4985332;28;4038;-65
2023/07/12 03:12:06;;;;;;;;;;;;;;;23.68;52.25;100073.63;4985090;28;4071;-65
2023/07/12 03:14:33;;;;;;;;;;;;;;;23.67;52.33;100063.47;4983444;28;4061;-65
2023/07/12 03:16:59;;;;;;;;;;;;;;;23.67;52.37;100060.59;4981508;28;4126;-65
2023/07/12 03:19:26;;;;;;;;;;;;;;;23.67;52.38;100071.44;4986166;28;4204;-65
2023/07/12 03:21:52;;;;;;;;;;;;;;;23.70;52.38;100070.03;4982564;28;4181;-65
2023/07/12 03:24:19;;;;;;;;;;;;;;;23.71;52.57;100059.94;4985460;28;4027;-65
2023/07/12 03:26:45;;;;;;;;;;;;;;;23.70;52.68;100056.31;4984912;28;4054;-65
2023/07/12 03:29:11;;;;;;;;;;;;;;;23.68;52.37;100056.28;4986013;28;4019;-65
2023/07/12 03:31:38;;;;;;;;;;;;;;;23.68;52.73;100053.38;4983362;28;3956;-65
2023/07/12 03:34:04;;;;;;;;;;;;;;;23.68;52.47;100056.28;4989067;28;4072;-65
2023/07/12 03:36:31;;;;;;;;;;;;;;;23.68;52.67;100050.50;4984189;28;4153;-65
2023/07/12 03:38:57;;;;;;;;;;;;;;;23.66;52.47;100041.78;4986799;28;4145;-65
2023/07/12 03:41:24;;;;;;;;;;;;;;;23.69;52.79;100048.34;4982988;28;4539;-65
2023/07/12 03:43:50;;;;;;;;;;;;;;;23.67;52.70;100040.38;4990212;28;4156;-65
2023/07/12 03:46:17;;;;;;;;;;;;;;;23.68;52.77;100041.09;4986104;28;4192;-65
2023/07/12 03:48:43;;;;;;;;;;;;;;;23.68;52.88;100049.75;4985820;28;4081;-65
2023/07/12 03:51:10;;;;;;;;;;;;;;;23.69;52.71;100046.19;4987662;28;3949;-65
2023/07/12 03:53:36;;;;;;;;;;;;;;;23.68;52.86;100044.72;4989800;28;4112;-65
2023/07/12 03:56:03;;;;;;;;;;;;;;;23.67;53.12;100043.25;4984730;28;5181;-65
2023/07/12 03:58:30;;;;;;;;;;;;;;;23.67;52.95;100037.47;4988634;28;4100;-65
2023/07/12 04:01:00;;;;;;;;;;;;;;;23.68;52.81;100038.94;4985622;28;4147;-65
2023/07/12 04:03:26;;;;;;;;;;;;;;;23.69;53.14;100046.19;4986682;28;4562;-65
2023/07/12 04:05:53;;;;;;;;;;;;;;;23.69;53.24;100048.34;4986826;28;3969;-65
2023/07/12 04:08:19;;;;;;;;;;;;;;;23.69;53.37;100031.75;4987712;28;4121;-65
2023/07/12 04:10:49;;;;;;;;;;;;;;;23.68;53.18;100043.97;4989332;28;4337;-65
2023/07/12 04:13:15;;;;;;;;;;;;;;;23.67;53.30;100037.47;4987215;28;4064;-66
2023/07/12 04:15:42;;;;;;;;;;;;;;;23.67;53.34;100042.53;4989214;28;4130;-65
2023/07/12 04:18:08;;;;;;;;;;;;;;;23.66;53.51;100024.44;4989805;28;4286;-65
2023/07/12 04:20:38;;;;;;;;;;;;;;;23.67;53.48;100028.81;4987593;28;4142;-65
2023/07/12 04:23:04;;;;;;;;;;;;;;;23.67;53.32;100025.91;4988527;28;4069;-65
2023/07/12 04:25:32;;;;;;;;;;;;;;;23.68;53.74;100038.94;4984610;28;4926;-65
2023/07/12 04:27:58;;;;;;;;;;;;;;;23.67;53.72;100031.69;4986050;28;4593;-65
2023/07/12 04:30:25;;;;;;;;;;;;;;;23.67;53.75;100025.91;4985446;28;4518;-65
2023/07/12 04:32:52;;;;;;;;;;;;;;;23.67;53.81;100030.97;4987333;28;4194;-65
2023/07/12 04:35:19;;;;;;;;;;;;;;;23.68;53.66;100026.63;4982751;28;4178;-65
2023/07/12 04:37:46;;;;;;;;;;;;;;;23.60;54.11;100027.94;4985750;28;4128;-65
2023/07/12 04:40:12;;;;;;;;;;;;;;;23.59;54.60;100026.50;4983478;28;5082;-67
2023/07/12 04:42:39;;;;;;;;;;;;;;;23.61;55.10;100040.22;4985488;28;4182;-67
2023/07/12 04:45:05;;;;;;;;;;;;;;;23.55;55.33;100045.91;4987185;28;4179;-67
2023/07/12 04:47:32;;;;;;;;;;;;;;;23.55;55.73;100051.69;4984145;28;4218;-67
2023/07/12 04:49:59;;;;;;;;;;;;;;;23.53;55.88;100058.16;5000321;28;4242;-66
2023/07/12 04:52:25;;;;;;;;;;;;;;;23.55;55.79;100066.13;4985654;28;4239;-66
2023/07/12 04:54:55;;;;;;;;;;;;;;;23.51;56.28;100058.09;4986702;28;4191;-66
2023/07/12 04:57:21;;;;;;;;;;;;;;;23.56;56.69;100056.75;4981398;28;4194;-67
2023/07/12 04:59:47;;;;;;;;;;;;;;;23.57;56.71;100066.16;4980260;28;4076;-63
2023/07/12 05:02:14;;;;;;;;;;;;;;;23.54;56.69;100062.50;4979774;28;4204;-65
2023/07/12 05:04:40;;;;;;;;;;;;;;;23.57;56.86;100063.25;4986482;28;4317;-65
2023/07/12 05:07:09;;;;;;;;;;;;;;;23.59;56.98;100069.09;4990914;28;4308;-65
2023/07/12 05:09:36;;;;;;;;;;;;;;;23.60;57.31;100073.47;4985530;28;4101;-65
2023/07/12 05:12:03;;;;;;;;;;;;;;;23.58;57.95;100076.31;4982050;28;4947;-65
2023/07/12 05:14:29;;;;;;;;;;;;;;;23.53;58.50;100074.75;4986914;28;5125;-65
2023/07/12 05:16:56;;;;;;;;;;;;;;;23.57;58.37;100080.59;4992290;28;4338;-65
2023/07/12 05:19:23;;;;;;;;;;;;;;;23.59;58.39;100083.53;4988359;28;4056;-65
2023/07/12 05:21:49;;;;;;;;;;;;;;;23.59;58.71;100083.53;5004974;28;4145;-65
2023/07/12 05:24:15;;;;;;;;;;;;;;;23.57;58.70;100080.59;4987886;28;4156;-65
2023/07/12 05:26:42;;;;;;;;;;;;;;;23.58;58.78;100082.81;5005845;28;4133;-65
2023/07/12 05:29:10;;;;;;;;;;;;;;;23.59;58.82;100089.31;4989267;28;5111;-65
2023/07/12 05:31:37;;;;;;;;;;;;;;;23.61;59.59;100092.25;4987204;28;3980;-65
2023/07/12 05:34:03;;;;;;;;;;;;;;;23.57;59.73;100097.94;4990646;28;4074;-65
2023/07/12 05:36:30;;;;;;;;;;;;;;;23.62;60.21;100105.28;4986484;28;4114;-65
2023/07/12 05:38:58;;;;;;;;;;;;;;;23.61;60.10;100115.38;4992284;28;4137;-65
2023/07/12 05:41:25;;;;;;;;;;;;;;;23.59;60.46;100110.31;4988008;28;4182;-65
2023/07/12 05:43:51;;;;;;;;;;;;;;;23.61;60.17;100121.16;5000990;28;5070;-65
2023/07/12 05:46:18;;;;;;;;;;;;;;;23.65;60.31;100127.03;4984454;28;4188;-65
2023/07/12 05:48:44;;;;;;;;;;;;;;;23.67;60.15;100124.19;4985930;28;4541;-65
2023/07/12 05:51:10;;;;;;;;;;;;;;;23.67;60.26;100129.22;4984052;28;4097;-65
2023/07/12 05:53:37;;;;;;;;;;;;;;;23.69;60.57;100132.91;4989437;28;4312;-65
2023/07/12 05:56:04;;;;;;;;;;;;;;;23.70;60.46;100134.34;4988440;28;4156;-65
2023/07/12 05:58:30;;;;;;;;;;;;;;;23.72;60.16;100137.28;4987132;28;4055;-65
2023/07/12 06:00:58;;;;;;;;;;;;;;;23.73;60.11;100147.44;4985535;28;4121;-65
2023/07/12 06:03:25;;;;;;;;;;;;;;;23.72;60.14;100151.75;4988060;28;4122;-70
2023/07/12 06:05:52;;;;;;;;;;;;;;;23.70;60.06;100151.69;4992902;28;4075;-68
2023/07/12 06:08:19;;;;;;;;;;;;;;;23.72;60.01;100153.91;4989913;28;4213;-68
2023/07/12 06:10:45;;;;;;;;;;;;;;;23.72;60.10;100153.91;4985832;28;4079;-68
2023/07/12 06:13:11;;;;;;;;;;;;;;;23.74;59.81;100159.72;4987063;28;4157;-68
2023/07/12 06:15:38;;;;;;;;;;;;;;;23.70;60.06;100160.38;4987833;28;4678;-68
2023/07/12 06:18:04;;;;;;;;;;;;;;;23.77;59.92;100172.81;4989797;28;4134;-68
2023/07/12 06:20:31;;;;;;;;;;;;;;;23.79;59.80;100170.72;4984758;28;4282;-69
2023/07/12 06:22:57;;;;;;;;;;;;;;;23.78;59.99;100166.38;4984597;28;4124;-67
2023/07/12 06:25:24;;;;;;;;;;;;;;;23.79;60.26;100164.94;4984762;28;4123;-67
2023/07/12 06:27:50;;;;;;;;;;;;;;;23.86;60.89;100167.94;4984776;28;4504;-67
2023/07/12 06:30:17;;;;;;;;;;;;;;;23.93;61.34;100166.66;4983270;28;4240;-68
2023/07/12 06:32:44;;;;;;;;;;;;;;;23.93;61.24;100172.44;4988939;28;4085;-69
2023/07/12 06:35:11;;;;;;;;;;;;;;;23.90;60.92;100174.56;4984877;28;4176;-68
2023/07/12 06:37:37;;;;;;;;;;;;;;;23.89;60.77;100178.13;4977720;28;4339;-68
2023/07/12 06:40:05;;;;;;;;;;;;;;;23.88;60.98;100176.66;4983988;28;4050;-69
2023/07/12 06:42:31;;;;;;;;;;;;;;;23.86;60.82;100185.31;4990586;28;4123;-68
2023/07/12 06:44:58;;;;;;;;;;;;;;;23.88;60.41;100194.03;4988020;28;3996;-69
2023/07/12 06:47:24;;;;;;;;;;;;;;;23.88;60.21;100199.81;4981874;28;4294;-68
2023/07/12 06:49:51;;;;;;;;;;;;;;;23.88;60.12;100199.81;4983812;28;4063;-68
2023/07/12 06:52:17;;;;;;;;;;;;;;;23.85;60.46;100201.19;4988004;28;4331;-68
2023/07/12 06:54:44;;;;;;;;;;;;;;;23.87;60.27;100212.78;4991628;28;4024;-68
2023/07/12 06:57:10;;;;;;;;;;;;;;;23.83;60.31;100214.16;4986524;28;4101;-69
2023/07/12 06:59:37;;;;;;;;;;;;;;;23.83;59.99;100222.09;4986830;28;4204;-69
2023/07/12 07:02:03;;;;;;;;;;;;;;;23.81;60.01;100222.78;4985882;28;4107;-68
2023/07/12 07:04:30;;;;;;;;;;;;;;;23.82;59.87;100244.50;4989355;28;4192;-67
2023/07/12 07:06:56;;;;;;;;;;;;;;;23.79;59.95;100250.91;4986286;28;4236;-67
2023/07/12 07:09:23;;;;;;;;;;;;;;;23.80;59.80;100235.78;4986501;28;4065;-69
2023/07/12 07:11:49;;;;;;;;;;;;;;;23.82;60.14;100256.06;4986547;28;4027;-68
2023/07/12 07:14:15;;;;;;;;;;;;;;;23.86;59.78;100266.25;4985453;28;4173;-69
2023/07/12 07:16:42;;;;;;;;;;;;;;;23.86;59.85;100272.03;4987590;28;4135;-69
2023/07/12 07:19:09;;;;;;;;;;;;;;;23.85;59.82;100290.81;4989161;28;4529;-69
2023/07/12 07:21:35;;;;;;;;;;;;;;;23.86;59.83;100295.16;4984027;28;4292;-69
2023/07/12 07:24:02;;;;;;;;;;;;;;;23.85;59.89;100282.88;4994676;28;4189;-69
2023/07/12 07:26:28;;;;;;;;;;;;;;;23.88;59.76;100293.06;4990115;28;4003;-69
2023/07/12 07:28:55;;;;;;;;;;;;;;;23.89;59.76;100302.47;4988837;28;4169;-69
2023/07/12 07:31:21;;;;;;;;;;;;;;;23.88;59.51;100298.09;4989269;28;4147;-69
2023/07/12 07:33:47;;;;;;;;;;;;;;;23.86;59.18;100309.63;4992719;28;4280;-68
2023/07/12 07:36:14;;;;;;;;;;;;;;;23.87;59.25;100313.97;4988417;28;4096;-68
2023/07/12 07:38:40;;;;;;;;;;;;;;;23.90;59.26;100327.81;4990059;28;4286;-68
2023/07/12 07:41:10;;;;;;;;;;;;;;;23.92;59.15;100330.00;4993644;28;4006;-68
2023/07/12 07:43:39;;;;;;;;;;;;;;;23.91;59.36;100320.59;4990210;28;4105;-67
2023/07/12 07:46:09;;;;;;;;;;;;;;;23.91;59.31;100319.84;4990383;28;4121;-68
2023/07/12 07:48:36;;;;;;;;;;;;;;;23.93;59.16;100308.34;4992626;28;4152;-68
2023/07/12 07:51:02;;;;;;;;;;;;;;;23.92;58.82;100301.81;4991731;28;5429;-68
2023/07/12 07:53:32;;;;;;;;;;;;;;;23.91;58.99;100303.22;4991519;28;4215;-67
2023/07/12 07:55:58;;;;;;;;;;;;;;;23.91;58.84;100293.81;4991190;28;4174;-67
2023/07/12 07:58:24;;;;;;;;;;;;;;;23.91;58.78;100290.94;4993781;28;4107;-68
2023/07/12 08:00:51;;;;;;;;;;;;;;;23.90;59.01;100296.00;4993304;28;4086;-68
2023/07/12 08:03:18;;;;;;;;;;;;;;;23.93;58.69;100299.66;4992283;28;4693;-67
2023/07/12 08:05:45;;;;;;;;;;;;;;;23.92;58.77;100309.78;4990470;28;4003;-68
2023/07/12 08:08:11;;;;;;;;;;;;;;;23.93;58.74;100314.13;4995389;28;4997;-68
2023/07/12 08:10:38;;;;;;;;;;;;;;;23.92;58.71;100309.78;4989507;28;4109;-68
2023/07/12 08:13:04;;;;;;;;;;;;;;;23.92;58.44;100324.97;4987791;28;3871;-67
2023/07/12 08:15:30;;;;;;;;;;;;;;;23.93;58.53;100322.78;4989939;28;4191;-67
2023/07/12 08:17:57;;;;;;;;;;;;;;;23.92;58.67;100338.69;4988533;28;4009;-67
2023/07/12 08:20:24;;;;;;;;;;;;;;;23.93;58.46;100348.81;4989841;28;4035;-68
2023/07/12 08:22:51;;;;;;;;;;;;;;;23.94;58.55;100347.41;4994209;28;4916;-67
2023/07/12 08:25:17;;;;;;;;;;;;;;;23.93;58.35;100340.88;4988593;28;4146;-67
2023/07/12 08:27:44;;;;;;;;;;;;;;;23.94;58.30;100347.41;4992619;28;4108;-67
2023/07/12 08:30:11;;;;;;;;;;;;;;;23.93;58.40;100340.88;4993177;28;4212;-68
2023/07/12 08:32:37;;;;;;;;;;;;;;;23.94;58.32;100347.41;4989143;28;5312;-67
2023/07/12 08:35:03;;;;;;;;;;;;;;;23.93;58.54;100343.03;4992075;28;4002;-67
2023/07/12 08:37:30;;;;;;;;;;;;;;;23.94;58.19;100342.34;4992308;28;4150;-67
2023/07/12 08:39:56;;;;;;;;;;;;;;;23.95;58.32;100337.31;4992168;28;4092;-67
2023/07/12 08:42:24;;;;;;;;;;;;;;;23.95;58.22;100345.97;4990091;28;4176;-66
2023/07/12 08:44:50;;;;;;;;;;;;;;;23.95;58.27;100343.09;4990989;28;4102;-67
2023/07/12 08:47:22;;;;;;;;;;;;;;;23.94;58.31;100341.63;5005517;28;4445;-67
2023/07/12 08:49:49;;;;;;;;;;;;;;;23.94;58.09;100348.13;4992057;28;4148;-67
2023/07/12 08:52:16;;;;;;;;;;;;;;;23.95;58.37;100348.88;4993668;28;4238;-67
2023/07/12 08:54:43;;;;;;;;;;;;;;;23.94;58.31;100347.41;4992716;28;4171;-67
2023/07/12 08:57:16;;;;;;;;;;;;;;;23.95;58.17;100349.59;4989659;28;4480;-67
2023/07/12 08:59:42;;;;;;;;;;;;;;;23.95;58.35;100346.72;4991222;28;5294;-68
2023/07/12 09:02:16;;;;;;;;;;;;;;;23.95;58.23;100335.13;4998459;28;4055;-67
2023/07/12 09:04:42;;;;;;;;;;;;;;;23.95;57.88;100343.09;4990501;28;4092;-67
2023/07/12 09:07:09;;;;;;;;;;;;;;;23.95;58.09;100337.31;4990261;28;4112;-67
2023/07/12 09:09:36;;;;;;;;;;;;;;;23.95;58.09;100349.59;4991980;28;4411;-67
2023/07/12 09:12:05;;;;;;;;;;;;;;;23.96;58.11;100367.69;4991888;28;3983;-67
2023/07/12 09:14:33;;;;;;;;;;;;;;;23.95;58.21;100366.22;4989517;28;4353;-67
2023/07/12 09:17:00;;;;;;;;;;;;;;;23.95;58.09;100355.38;4988221;28;4128;-67
2023/07/12 09:19:30;;;;;;;;;;;;;;;23.96;58.17;100361.91;4987197;28;4387;-67
2023/07/12 09:21:57;;;;;;;;;;;;;;;23.97;58.16;100383.63;4990358;28;4065;-67
2023/07/12 09:24:26;;;;;;;;;;;;;;;23.96;57.99;100364.78;4991527;28;4485;-67
2023/07/12 09:27:05;;;;;;;;;;;;;;;23.97;57.93;100363.38;4989716;28;5170;-67
2023/07/12 09:29:35;;;;;;;;;;;;;;;23.97;57.73;100364.09;4987156;28;4047;-67
2023/07/12 09:32:01;;;;;;;;;;;;;;;23.97;58.07;100358.31;4989356;28;4165;-67
2023/07/12 09:34:35;;;;;;;;;;;;;;;23.99;57.76;100354.75;4986879;28;4149;-67
2023/07/12 09:37:02;;;;;;;;;;;;;;;23.99;58.04;100372.09;4997025;28;4072;-67
2023/07/12 09:39:28;;;;;;;;;;;;;;;23.97;57.83;100375.69;4998149;28;4106;-67
2023/07/12 09:41:55;;;;;;;;;;;;;;;23.99;57.92;100380.78;4987265;28;4162;-67
2023/07/12 09:44:22;;;;;;;;;;;;;;;24.00;57.76;100382.25;4991777;28;4103;-66
2023/07/12 09:46:50;;;;;;;;;;;;;;;23.99;58.01;100372.84;4989083;28;4001;-67
2023/07/12 09:49:17;;;;;;;;;;;;;;;24.00;57.64;100379.34;4991008;28;4162;-66
2023/07/12 09:51:55;;;;;;;;;;;;;;;24.00;58.03;100385.13;4990922;28;4215;-67
2023/07/12 09:54:33;;;;;;;;;;;;;;;24.00;58.00;100393.81;5004989;28;4304;-67
2023/07/12 09:57:00;;;;;;;;;;;;;;;24.02;57.83;100409.06;4997896;28;4193;-67
2023/07/12 09:59:38;;;;;;;;;;;;;;;24.01;57.83;100418.44;4987659;28;4090;-67
2023/07/12 10:02:25;;;;;;;;;;;;;;;24.01;57.80;100421.31;4990505;28;4203;-67
2023/07/12 10:04:55;;;;;;;;;;;;;;;24.00;57.81;100408.28;5000359;28;4349;-67
2023/07/12 10:07:22;;;;;;;;;;;;;;;24.00;57.68;100414.06;4985612;28;4111;-67
2023/07/12 10:09:48;;;;;;;;;;;;;;;24.01;57.60;100410.47;4988933;28;4144;-67
2023/07/12 10:12:18;;;;;;;;;;;;;;;24.01;57.65;100416.28;4990589;28;4365;-67
2023/07/12 10:14:45;;;;;;;;;;;;;;;24.02;57.72;100422.78;4992349;28;4119;-67
2023/07/12 10:17:28;;;;;;;;;;;;;;;24.01;57.88;100419.16;4986817;28;4128;-67
2023/07/12 10:19:55;;;;;;;;;;;;;;;24.02;57.82;100425.69;4994988;28;4020;-67
2023/07/12 10:22:26;;;;;;;;;;;;;;;24.03;57.69;100412.69;4992135;28;4445;-67
2023/07/12 10:24:53;;;;;;;;;;;;;;;24.03;57.85;100418.47;5008058;28;4278;-67
2023/07/12 10:27:20;;;;;;;;;;;;;;;24.03;57.55;100430.78;4986989;28;4224;-66
2023/07/12 10:29:48;;;;;;;;;;;;;;;24.04;57.86;100431.50;4989676;28;4166;-67
2023/07/12 10:32:17;;;;;;;;;;;;;;;24.03;57.60;100430.78;4996929;28;4068;-66
2023/07/12 10:34:44;;;;;;;;;;;;;;;24.04;57.68;100425.72;4993650;28;3998;-67
2023/07/12 10:37:25;;;;;;;;;;;;;;;24.05;57.64;100432.97;4985564;28;4150;-67
2023/07/12 10:39:51;;;;;;;;;;;;;;;24.04;57.70;100420.66;5006241;28;4116;-67
2023/07/12 10:42:30;;;;;;;;;;;;;;;24.04;57.67;100429.34;4992695;28;4237;-66
2023/07/12 10:44:57;;;;;;;;;;;;;;;24.04;57.54;100428.63;4989042;28;4145;-67
2023/07/12 10:47:24;;;;;;;;;;;;;;;24.05;57.67;100430.06;4987696;28;4110;-67
2023/07/12 10:49:53;;;;;;;;;;;;;;;24.06;57.54;100434.44;4985928;28;4095;-67
2023/07/12 10:52:26;;;;;;;;;;;;;;;24.07;57.62;100426.50;5005365;28;4131;-67
2023/07/12 10:55:01;;;;;;;;;;;;;;;24.07;57.47;100435.91;4991358;28;4543;-67
2023/07/12 10:57:29;;;;;;;;;;;;;;;24.07;57.73;100440.97;4985478;28;4500;-66
2023/07/12 10:59:59;;;;;;;;;;;;;;;24.07;57.48;100433.03;5002124;28;3945;-67
2023/07/12 11:02:31;;;;;;;;;;;;;;;24.08;57.71;100439.56;4995530;28;4535;-67
2023/07/12 11:04:57;;;;;;;;;;;;;;;24.08;57.41;100457.66;4996316;28;4101;-67
2023/07/12 11:07:24;;;;;;;;;;;;;;;24.08;57.49;100454.75;4991083;28;3998;-67
2023/07/12 11:09:50;;;;;;;;;;;;;;;24.09;57.29;100456.22;4993676;28;4373;-67
2023/07/12 11:12:26;;;;;;;;;;;;;;;24.09;57.48;100444.63;4996714;28;4089;-67
2023/07/12 11:14:53;;;;;;;;;;;;;;;24.10;57.41;100451.91;4991540;28;3982;-67
2023/07/12 11:17:25;;;;;;;;;;;;;;;24.10;57.45;100443.25;4988022;28;4110;-67
2023/07/12 11:20:03;;;;;;;;;;;;;;;24.10;57.46;100449.03;4994081;28;4040;-67
2023/07/12 11:22:48;;;;;;;;;;;;;;;24.11;57.45;100455.53;4986971;28;4173;-67
2023/07/12 11:25:31;;;;;;;;;;;;;;;24.11;57.45;100452.66;4990767;28;4228;-66
2023/07/12 11:27:59;;;;;;;;;;;;;;;24.11;57.50;100464.94;4993419;28;4057;-67
2023/07/12 11:30:28;;;;;;;;;;;;;;;24.11;57.39;100458.44;4992901;28;4117;-67
2023/07/12 11:32:59;;;;;;;;;;;;;;;24.11;57.22;100462.06;4989866;28;3998;-67
2023/07/12 11:35:36;;;;;;;;;;;;;;;24.11;57.32;100458.44;4997176;28;4080;-67
2023/07/12 11:38:02;;;;;;;;;;;;;;;24.11;57.52;100459.16;5000584;28;4322;-67
2023/07/12 11:40:30;;;;;;;;;;;;;;;24.10;57.39;100457.69;5004953;28;4100;-67
2023/07/12 11:42:57;;;;;;;;;;;;;;;24.11;57.33;100459.16;4988211;28;3982;-67
2023/07/12 11:45:24;;;;;;;;;;;;;;;24.12;57.49;100454.88;5004710;28;4197;-67
2023/07/12 11:47:54;;;;;;;;;;;;;;;24.12;57.24;100454.88;5004159;28;4416;-67
2023/07/12 11:50:22;;;;;;;;;;;;;;;24.13;57.14;100465.00;4992330;28;4066;-67
2023/07/12 11:52:48;;;;;;;;;;;;;;;24.11;57.17;100458.44;4991523;28;5331;-67
2023/07/12 11:55:15;;;;;;;;;;;;;;;24.14;57.26;100462.84;5006802;28;4004;-67
2023/07/12 11:57:42;;;;;;;;;;;;;;;24.14;57.34;100465.72;4990764;28;4189;-67
2023/07/12 12:00:16;;;;;;;;;;;;;;;24.13;57.23;100456.31;4992802;28;4088;-67
2023/07/12 12:02:49;;;;;;;;;;;;;;;24.14;57.18;100460.66;4990836;28;4005;-67
2023/07/12 12:05:20;;;;;;;;;;;;;;;24.16;57.27;100466.50;4990797;28;4156;-66
2023/07/12 12:07:47;;;;;;;;;;;;;;;24.15;57.16;100458.53;4990888;28;4072;-68
2023/07/12 12:10:23;;;;;;;;;;;;;;;24.15;57.22;100462.16;4989670;28;4211;-69
2023/07/12 12:12:49;;;;;;;;;;;;;;;24.15;57.20;100459.25;4989596;28;3985;-68
2023/07/12 12:15:17;;;;;;;;;;;;;;;24.15;57.16;100467.94;4993275;28;4155;-68
2023/07/12 12:17:44;;;;;;;;;;;;;;;24.17;57.33;100467.25;4987946;28;4106;-68
2023/07/12 12:20:13;;;;;;;;;;;;;;;24.17;57.26;100473.06;4991247;28;4147;-68
2023/07/12 12:22:41;;;;;;;;;;;;;;;24.16;57.23;100466.50;4990580;28;3939;-68
2023/07/12 12:25:15;;;;;;;;;;;;;;;24.14;57.19;100469.34;4991201;28;4116;-68
2023/07/12 12:27:42;;;;;;;;;;;;;;;24.18;57.15;100474.50;4988973;28;4004;-68
2023/07/12 12:30:14;;;;;;;;;;;;;;;24.18;57.10;100478.13;4989791;28;3903;-68
2023/07/12 12:32:40;;;;;;;;;;;;;;;24.15;57.08;100476.63;4990663;28;4115;-68
2023/07/12 12:35:17;;;;;;;;;;;;;;;24.17;57.07;100482.47;4988780;28;4100;-68
2023/07/12 12:37:45;;;;;;;;;;;;;;;24.17;57.35;100485.34;4989937;28;4180;-68
2023/07/12 12:40:17;;;;;;;;;;;;;;;24.18;57.08;100475.25;4989426;28;4038;-68
2023/07/12 12:42:50;;;;;;;;;;;;;;;24.17;57.42;100485.34;4990850;28;4146;-69
2023/07/12 12:45:17;;;;;;;;;;;;;;;24.18;57.29;100486.09;4990871;28;4229;-69
2023/07/12 12:47:43;;;;;;;;;;;;;;;24.21;57.04;100485.47;4991093;28;4293;-69
2023/07/12 12:50:20;;;;;;;;;;;;;;;24.22;57.08;100486.91;5003945;28;4120;-69